createdAt,value
2023-04-26T00:00:19.216Z,89.60
2023-04-26T00:03:21.063Z,89.50
2023-04-26T00:06:22.860Z,90.00
2023-04-26T00:09:24.676Z,89.80
2023-04-26T00:12:26.358Z,90.00
2023-04-26T00:15:27.909Z,90.10
2023-04-26T00:18:29.564Z,90.20
2023-04-26T00:21:31.751Z,90.10
2023-04-26T00:24:33.392Z,90.20
2023-04-26T00:27:35.136Z,90.20
2023-04-26T00:30:41.142Z,90.30
2023-04-26T00:33:43.468Z,90.30
2023-04-26T00:36:45.953Z,90.30
2023-04-26T00:39:47.637Z,90.60
2023-04-26T00:42:49.220Z,90.30
2023-04-26T00:45:51.973Z,90.40
2023-04-26T00:48:53.722Z,90.50
2023-04-26T00:51:55.724Z,90.50
2023-04-26T00:55:00.441Z,90.50
2023-04-26T00:58:02.430Z,90.80
2023-04-26T01:01:04.160Z,90.70
2023-04-26T01:04:06.123Z,90.70
2023-04-26T01:07:08.262Z,90.70
2023-04-26T01:10:10.418Z,90.60
2023-04-26T01:13:12.801Z,90.40
2023-04-26T01:16:15.878Z,90.70
2023-04-26T01:19:18.152Z,90.60
2023-04-26T01:22:19.703Z,90.80
2023-04-26T01:25:21.433Z,90.70
2023-04-26T01:28:23.202Z,90.70
2023-04-26T01:31:24.903Z,90.70
2023-04-26T01:34:26.588Z,90.70
2023-04-26T01:37:28.244Z,91.00
2023-04-26T01:40:29.792Z,90.80
2023-04-26T01:43:31.523Z,90.90
2023-04-26T01:46:33.345Z,90.90
2023-04-26T01:49:35.159Z,90.80
2023-04-26T01:52:36.781Z,90.80
2023-04-26T01:55:38.612Z,91.00
2023-04-26T01:58:40.258Z,90.90
2023-04-26T02:01:43.277Z,91.10
2023-04-26T02:04:44.865Z,91.00
2023-04-26T02:07:46.472Z,91.00
2023-04-26T02:10:48.036Z,90.90
2023-04-26T02:13:49.626Z,91.10
2023-04-26T02:16:51.850Z,91.10
2023-04-26T02:19:53.857Z,91.20
2023-04-26T02:22:55.496Z,91.10
2023-04-26T02:25:57.126Z,91.20
2023-04-26T02:28:58.763Z,91.20
2023-04-26T02:32:00.439Z,91.30
2023-04-26T02:35:02.447Z,91.50
2023-04-26T02:38:04.708Z,91.40
2023-04-26T02:41:06.405Z,91.40
2023-04-26T02:44:08.309Z,91.30
2023-04-26T02:47:10.801Z,91.60
2023-04-26T02:50:12.482Z,91.50
2023-04-26T02:53:14.070Z,91.50
2023-04-26T02:56:16.259Z,91.50
2023-04-26T02:59:17.880Z,91.60
2023-04-26T03:02:19.563Z,91.40
2023-04-26T03:05:21.459Z,91.60
2023-04-26T03:08:23.174Z,91.70
2023-04-26T03:11:24.866Z,91.70
2023-04-26T03:14:29.434Z,91.60
2023-04-26T03:17:36.812Z,91.20
2023-04-26T03:21:10.771Z,91.60
2023-04-26T03:25:04.872Z,92.50
2023-04-26T03:28:44.714Z,91.10
2023-04-26T03:35:02.603Z,91.60
2023-04-26T03:38:10.052Z,92.30
2023-04-26T03:41:11.930Z,92.20
2023-04-26T03:44:31.294Z,91.70
2023-04-26T03:47:33.058Z,92.20
2023-04-26T03:50:34.678Z,91.90
2023-04-26T03:53:36.335Z,91.90
2023-04-26T03:56:38.751Z,91.90
2023-04-26T03:59:40.357Z,91.90
2023-04-26T04:02:42.864Z,91.80
2023-04-26T04:05:44.868Z,92.20
2023-04-26T04:08:46.482Z,92.00
2023-04-26T04:11:48.122Z,91.90
2023-04-26T04:14:49.703Z,91.90
2023-04-26T04:17:51.372Z,92.10
2023-04-26T04:20:52.995Z,92.00
2023-04-26T04:23:54.901Z,92.20
2023-04-26T04:26:56.520Z,92.40
2023-04-26T04:29:58.082Z,92.30
2023-04-26T04:33:00.206Z,92.30
2023-04-26T04:36:01.845Z,92.20
2023-04-26T04:39:04.133Z,92.20
2023-04-26T04:42:06.100Z,92.20
2023-04-26T04:45:08.210Z,91.80
2023-04-26T04:48:11.355Z,92.10
2023-04-26T04:51:13.081Z,92.30
2023-04-26T04:54:16.630Z,92.30
2023-04-26T04:57:18.791Z,92.50
2023-04-26T05:00:21.090Z,92.30
2023-04-26T05:03:22.881Z,92.20
2023-04-26T05:06:25.251Z,92.20
2023-04-26T05:09:27.280Z,92.30
2023-04-26T05:12:28.871Z,92.30
2023-04-26T05:15:30.576Z,92.40
2023-04-26T05:18:32.145Z,92.20
2023-04-26T05:21:33.691Z,92.30
2023-04-26T05:24:35.411Z,92.30
2023-04-26T05:27:40.042Z,92.30
2023-04-26T05:30:41.731Z,91.80
2023-04-26T05:33:43.271Z,92.10
2023-04-26T05:36:44.827Z,92.20
2023-04-26T05:39:46.376Z,92.10
2023-04-26T05:42:48.003Z,92.20
2023-04-26T05:45:53.757Z,92.20
2023-04-26T05:48:55.361Z,92.40
2023-04-26T05:52:00.241Z,92.00
2023-04-26T05:55:04.107Z,92.30
2023-04-26T05:58:06.363Z,92.10
2023-04-26T06:01:08.736Z,92.20
2023-04-26T06:04:11.046Z,92.10
2023-04-26T06:07:13.125Z,91.90
2023-04-26T06:10:14.653Z,91.80
2023-04-26T06:13:16.504Z,91.70
2023-04-26T06:16:18.094Z,91.70
2023-04-26T06:19:19.775Z,91.50
2023-04-26T06:22:21.401Z,91.70
2023-04-26T06:25:23.102Z,91.50
2023-04-26T06:28:24.691Z,91.60
2023-04-26T06:31:26.290Z,91.50
2023-04-26T06:34:27.989Z,91.50
2023-04-26T06:37:29.560Z,91.40
2023-04-26T06:40:31.288Z,91.40
2023-04-26T06:43:32.817Z,91.20
2023-04-26T06:46:34.573Z,91.00
2023-04-26T06:49:36.556Z,90.80
2023-04-26T06:52:38.768Z,90.60
2023-04-26T06:55:40.326Z,90.70
2023-04-26T06:59:02.581Z,90.60
2023-04-26T07:02:04.227Z,89.70
2023-04-26T07:05:06.432Z,90.50
2023-04-26T07:08:08.166Z,90.00
2023-04-26T07:11:11.028Z,90.50
2023-04-26T07:14:12.666Z,90.50
2023-04-26T07:17:14.221Z,90.50
2023-04-26T07:20:19.699Z,90.60
2023-04-26T07:23:21.320Z,90.20
2023-04-26T07:26:23.746Z,90.00
2023-04-26T07:29:25.442Z,89.70
2023-04-26T07:32:27.065Z,89.60
2023-04-26T07:35:28.800Z,89.50
2023-04-26T07:38:30.459Z,89.00
2023-04-26T07:41:32.181Z,89.30
2023-04-26T07:44:34.162Z,88.70
2023-04-26T07:47:36.259Z,88.30
2023-04-26T07:50:37.818Z,88.10
2023-04-26T07:53:41.089Z,88.30
2023-04-26T07:56:42.708Z,88.60
2023-04-26T07:59:44.261Z,88.60
2023-04-26T08:02:49.326Z,87.90
2023-04-26T08:05:51.293Z,86.20
2023-04-26T08:08:53.837Z,87.80
2023-04-26T08:11:55.566Z,87.60
2023-04-26T08:14:57.094Z,86.90
2023-04-26T08:17:58.652Z,87.30
2023-04-26T08:21:00.492Z,87.30
2023-04-26T08:24:02.056Z,87.40
2023-04-26T08:27:03.739Z,87.50
2023-04-26T08:30:06.055Z,87.60
2023-04-26T08:33:08.853Z,87.20
2023-04-26T08:36:10.468Z,88.00
2023-04-26T08:39:12.302Z,88.10
2023-04-26T08:42:16.118Z,88.70
2023-04-26T08:45:17.943Z,89.10
2023-04-26T08:48:19.803Z,88.40
2023-04-26T08:51:21.963Z,88.20
2023-04-26T08:54:25.144Z,87.60
2023-04-26T08:57:27.459Z,87.50
2023-04-26T09:00:30.345Z,86.80
2023-04-26T09:03:33.713Z,86.60
2023-04-26T09:06:37.035Z,86.00
2023-04-26T09:09:42.317Z,86.10
2023-04-26T09:12:44.155Z,85.50
2023-04-26T09:15:48.529Z,84.90
2023-04-26T09:18:57.273Z,84.90
2023-04-26T09:21:58.890Z,85.00
2023-04-26T09:25:01.529Z,86.50
2023-04-26T09:28:19.522Z,85.30
2023-04-26T09:31:39.344Z,84.20
2023-04-26T09:34:46.761Z,85.60
2023-04-26T09:38:13.861Z,85.70
2023-04-26T09:41:16.046Z,85.40
2023-04-26T09:44:24.900Z,85.70
2023-04-26T09:47:26.640Z,84.90
2023-04-26T09:50:32.023Z,84.30
2023-04-26T09:53:41.585Z,83.80
2023-04-26T09:56:58.743Z,81.40
2023-04-26T10:00:08.330Z,82.00
2023-04-26T10:03:10.220Z,82.20
2023-04-26T10:06:15.915Z,82.20
2023-04-26T10:09:18.291Z,81.00
2023-04-26T10:12:20.737Z,80.90
2023-04-26T10:15:22.589Z,81.60
2023-04-26T10:18:24.246Z,82.00
2023-04-26T10:21:35.073Z,82.20
2023-04-26T10:24:36.735Z,81.80
2023-04-26T10:27:44.459Z,83.20
2023-04-26T10:30:59.360Z,80.50
2023-04-26T10:34:21.030Z,80.60
2023-04-26T10:37:22.576Z,80.60
2023-04-26T10:40:26.357Z,80.70
2023-04-26T10:43:28.590Z,80.20
2023-04-26T10:46:40.846Z,80.10
2023-04-26T10:49:46.593Z,78.40
2023-04-26T10:53:05.746Z,80.70
2023-04-26T10:56:08.184Z,80.10
2023-04-26T11:02:16.566Z,78.80
2023-04-26T11:05:47.609Z,79.70
2023-04-26T11:08:49.188Z,77.30
2023-04-26T11:11:53.784Z,79.70
2023-04-26T11:14:56.296Z,79.20
2023-04-26T11:17:58.026Z,79.90
2023-04-26T11:21:00.178Z,79.80
2023-04-26T11:24:01.891Z,79.70
2023-04-26T11:27:09.663Z,80.10
2023-04-26T11:30:12.331Z,79.80
2023-04-26T11:33:24.669Z,79.20
2023-04-26T11:36:27.049Z,79.40
2023-04-26T11:39:29.156Z,80.20
2023-04-26T11:42:31.021Z,79.40
2023-04-26T11:45:34.915Z,80.00
2023-04-26T11:48:38.324Z,80.50
2023-04-26T11:51:40.308Z,79.60
2023-04-26T11:54:44.073Z,79.40
2023-04-26T11:57:45.950Z,79.10
2023-04-26T12:01:04.726Z,79.50
2023-04-26T12:04:10.497Z,77.80
2023-04-26T12:07:12.360Z,77.50
2023-04-26T12:10:18.909Z,77.60
2023-04-26T12:13:21.245Z,77.30
2023-04-26T12:16:26.848Z,76.10
2023-04-26T12:19:32.823Z,76.30
2023-04-26T12:22:34.373Z,76.70
2023-04-26T12:25:41.266Z,76.30
2023-04-26T12:28:43.118Z,76.30
2023-04-26T12:31:44.705Z,77.00
2023-04-26T12:34:46.487Z,77.20
2023-04-26T12:37:49.471Z,78.20
2023-04-26T12:40:51.408Z,77.60
2023-04-26T12:43:52.981Z,77.30
2023-04-26T12:46:54.950Z,76.60
2023-04-26T12:49:56.702Z,74.10
2023-04-26T12:52:58.282Z,74.40
2023-04-26T12:55:59.946Z,74.00
2023-04-26T12:59:01.654Z,74.20
2023-04-26T13:02:03.718Z,73.90
2023-04-26T13:05:06.637Z,74.20
2023-04-26T13:08:08.257Z,73.90
2023-04-26T13:11:09.826Z,74.20
2023-04-26T13:14:11.782Z,74.70
2023-04-26T13:17:13.310Z,74.50
2023-04-26T13:20:14.924Z,74.70
2023-04-26T13:23:16.510Z,74.90
2023-04-26T13:26:18.283Z,75.40
2023-04-26T13:29:19.889Z,76.00
2023-04-26T13:32:22.179Z,76.50
2023-04-26T13:35:23.835Z,76.30
2023-04-26T13:38:26.807Z,75.80
2023-04-26T13:41:33.237Z,75.70
2023-04-26T13:44:35.112Z,75.20
2023-04-26T13:47:36.958Z,75.30
2023-04-26T13:50:38.551Z,75.10
2023-04-26T13:53:40.591Z,75.10
2023-04-26T13:56:42.188Z,74.80
2023-04-26T13:59:43.784Z,74.20
2023-04-26T14:02:45.555Z,74.40
2023-04-26T14:05:47.211Z,74.00
2023-04-26T14:08:48.792Z,73.60
2023-04-26T14:12:00.872Z,73.50
2023-04-26T14:15:09.913Z,73.40
2023-04-26T14:18:11.518Z,72.10
2023-04-26T14:21:13.180Z,72.80
2023-04-26T14:24:14.805Z,72.00
2023-04-26T14:27:16.486Z,71.80
2023-04-26T14:30:18.142Z,73.20
2023-04-26T14:33:19.776Z,72.50
2023-04-26T14:36:21.620Z,72.00
2023-04-26T14:39:24.693Z,71.70
2023-04-26T14:42:26.713Z,72.20
2023-04-26T14:45:40.914Z,71.10
2023-04-26T14:48:45.516Z,71.40
2023-04-26T14:51:47.228Z,72.80
2023-04-26T14:54:48.958Z,73.30
2023-04-26T14:57:50.656Z,73.10
2023-04-26T15:00:53.459Z,72.90
2023-04-26T15:03:57.625Z,72.90
2023-04-26T15:07:01.047Z,72.80
2023-04-26T15:10:02.908Z,71.90
2023-04-26T15:13:04.536Z,70.80
2023-04-26T15:16:08.038Z,71.40
2023-04-26T15:19:09.927Z,70.80
2023-04-26T15:22:11.942Z,71.10
2023-04-26T15:25:13.758Z,72.40
2023-04-26T15:28:16.589Z,70.80
2023-04-26T15:31:20.927Z,70.90
2023-04-26T15:34:25.522Z,70.60
2023-04-26T15:37:27.160Z,71.40
2023-04-26T15:40:28.740Z,71.50
2023-04-26T15:43:30.318Z,72.00
2023-04-26T15:46:32.015Z,71.60
2023-04-26T15:49:33.727Z,71.40
2023-04-26T15:52:39.670Z,71.90
2023-04-26T15:55:41.593Z,71.00
2023-04-26T15:58:47.289Z,71.10
2023-04-26T16:01:48.917Z,70.60
2023-04-26T16:04:50.733Z,71.00
2023-04-26T16:07:52.374Z,70.60
2023-04-26T16:10:58.369Z,73.00
2023-04-26T16:14:01.319Z,71.50
2023-04-26T16:17:04.870Z,72.20
2023-04-26T16:20:08.025Z,72.50
2023-04-26T16:23:10.072Z,71.50
2023-04-26T16:26:11.873Z,72.40
2023-04-26T16:29:14.155Z,71.70
2023-04-26T16:32:16.031Z,72.10
2023-04-26T16:35:17.791Z,72.10
2023-04-26T16:38:20.026Z,71.90
2023-04-26T16:41:23.147Z,72.40
2023-04-26T16:44:25.146Z,72.70
2023-04-26T16:47:26.700Z,73.90
2023-04-26T16:50:28.501Z,73.00
2023-04-26T16:53:30.897Z,73.00
2023-04-26T16:56:32.862Z,73.30
2023-04-26T16:59:34.438Z,73.00
2023-04-26T17:02:36.203Z,74.60
2023-04-26T17:05:43.489Z,73.00
2023-04-26T17:08:45.498Z,73.30
2023-04-26T17:11:47.121Z,74.60
2023-04-26T17:14:48.977Z,73.30
2023-04-26T17:17:50.760Z,71.70
2023-04-26T17:20:53.702Z,73.10
2023-04-26T17:23:55.256Z,73.90
2023-04-26T17:26:56.825Z,72.70
2023-04-26T17:29:58.457Z,72.80
2023-04-26T17:33:00.064Z,73.00
2023-04-26T17:36:02.615Z,72.70
2023-04-26T17:39:04.308Z,72.90
2023-04-26T17:42:05.878Z,73.90
2023-04-26T17:45:07.711Z,73.00
2023-04-26T17:48:12.810Z,73.30
2023-04-26T17:51:14.402Z,73.40
2023-04-26T17:54:16.894Z,73.70
2023-04-26T17:57:20.139Z,73.30
2023-04-26T18:00:21.889Z,72.90
2023-04-26T18:03:23.673Z,73.30
2023-04-26T18:06:26.584Z,73.50
2023-04-26T18:09:28.136Z,73.40
2023-04-26T18:12:30.694Z,74.50
2023-04-26T18:15:32.331Z,73.60
2023-04-26T18:18:33.947Z,74.30
2023-04-26T18:21:35.703Z,73.70
2023-04-26T18:24:37.553Z,74.30
2023-04-26T18:27:39.162Z,73.40
2023-04-26T18:30:40.827Z,73.70
2023-04-26T18:33:42.547Z,74.10
2023-04-26T18:36:44.104Z,74.80
2023-04-26T18:39:45.839Z,74.40
2023-04-26T18:42:47.410Z,74.90
2023-04-26T18:45:49.513Z,74.80
2023-04-26T18:48:51.150Z,74.60
2023-04-26T18:51:52.930Z,74.70
2023-04-26T18:54:54.479Z,74.90
2023-04-26T18:57:56.121Z,74.90
2023-04-26T19:00:57.876Z,75.20
2023-04-26T19:04:00.067Z,76.00
2023-04-26T19:07:01.938Z,74.90
2023-04-26T19:10:04.405Z,75.70
2023-04-26T19:13:06.215Z,75.40
2023-04-26T19:16:08.979Z,75.50
2023-04-26T19:19:11.175Z,75.50
2023-04-26T19:22:12.862Z,75.80
2023-04-26T19:25:14.794Z,75.60
2023-04-26T19:28:16.381Z,75.80
2023-04-26T19:31:17.988Z,75.80
2023-04-26T19:34:19.588Z,75.80
2023-04-26T19:37:21.537Z,76.00
2023-04-26T19:40:23.073Z,76.20
2023-04-26T19:43:24.691Z,76.20
2023-04-26T19:46:26.222Z,76.10
2023-04-26T19:49:29.167Z,76.20
2023-04-26T19:52:30.874Z,76.40
2023-04-26T19:55:32.820Z,76.30
2023-04-26T19:58:34.370Z,75.90
2023-04-26T20:01:36.379Z,76.50
2023-04-26T20:04:37.988Z,76.50
2023-04-26T20:07:39.504Z,76.10
2023-04-26T20:10:41.660Z,76.50
2023-04-26T20:13:43.962Z,76.40
2023-04-26T20:16:45.545Z,76.60
2023-04-26T20:19:47.768Z,76.60
2023-04-26T20:22:49.672Z,76.90
2023-04-26T20:25:51.521Z,76.50
2023-04-26T20:28:53.058Z,76.60
2023-04-26T20:31:55.023Z,76.80
2023-04-26T20:34:56.658Z,77.60
2023-04-26T20:37:58.200Z,77.10
2023-04-26T20:41:00.459Z,77.00
2023-04-26T20:44:02.292Z,77.30
2023-04-26T20:47:04.027Z,77.30
2023-04-26T20:50:06.157Z,77.00
2023-04-26T20:53:07.749Z,77.00
2023-04-26T20:56:09.547Z,77.00
2023-04-26T20:59:11.635Z,77.20
2023-04-26T21:02:13.515Z,77.30
2023-04-26T21:05:15.232Z,77.50
2023-04-26T21:08:16.831Z,77.30
2023-04-26T21:11:18.399Z,77.90
2023-04-26T21:14:19.923Z,77.90
2023-04-26T21:17:21.524Z,78.00
2023-04-26T21:20:23.056Z,77.80
2023-04-26T21:23:24.675Z,78.30
2023-04-26T21:26:26.330Z,78.00
2023-04-26T21:29:31.186Z,78.40
2023-04-26T21:32:32.793Z,78.40
2023-04-26T21:35:34.860Z,78.40
2023-04-26T21:38:36.402Z,80.40
2023-04-26T21:41:37.960Z,78.10
2023-04-26T21:44:39.509Z,77.90
2023-04-26T21:47:41.224Z,78.00
2023-04-26T21:50:42.803Z,78.20
2023-04-26T21:53:44.343Z,78.10
2023-04-26T21:56:46.117Z,78.30
2023-04-26T21:59:47.782Z,78.30
2023-04-26T22:02:51.356Z,78.80
2023-04-26T22:05:53.050Z,78.80
2023-04-26T22:08:54.596Z,78.80
2023-04-26T22:11:56.192Z,78.70
2023-04-26T22:14:57.864Z,79.10
2023-04-26T22:17:59.495Z,79.10
2023-04-26T22:21:01.405Z,79.30
2023-04-26T22:24:03.074Z,78.70
2023-04-26T22:27:04.724Z,79.10
2023-04-26T22:30:23.097Z,79.10
2023-04-26T22:33:26.111Z,79.00
2023-04-26T22:36:27.708Z,79.00
2023-04-26T22:39:29.208Z,79.30
2023-04-26T22:42:31.070Z,79.70
2023-04-26T22:45:33.480Z,79.60
2023-04-26T22:48:35.052Z,79.90
2023-04-26T22:51:36.753Z,79.70
2023-04-26T22:54:38.428Z,80.30
2023-04-26T22:57:40.283Z,80.20
2023-04-26T23:00:41.850Z,80.20
2023-04-26T23:03:43.444Z,81.30
2023-04-26T23:06:45.054Z,80.50
2023-04-26T23:09:47.350Z,80.70
2023-04-26T23:12:50.023Z,81.20
2023-04-26T23:15:52.310Z,80.90
2023-04-26T23:18:54.015Z,80.90
2023-04-26T23:21:55.610Z,81.10
2023-04-26T23:24:57.289Z,81.10
2023-04-26T23:27:58.904Z,81.60
2023-04-26T23:31:00.651Z,81.60
2023-04-26T23:34:02.305Z,81.90
2023-04-26T23:37:07.224Z,82.30
2023-04-26T23:40:10.145Z,82.30
2023-04-26T23:43:13.745Z,82.20
2023-04-26T23:46:15.573Z,82.50
2023-04-26T23:49:17.198Z,82.40
2023-04-26T23:52:18.831Z,84.00
2023-04-26T23:55:20.391Z,82.70
2023-04-26T23:58:22.293Z,82.70
